Time;durP1;ratioP1;P1;durP2;ratioP2;P2;SDS_P1;SDS_P2;PMS_P1;PMS_P2;Temp;Humidity;BMP_temperature;BMP_pressure;BME280_temperature;BME280_humidity;BME280_pressure;Samples;Min_cycle;Max_cycle;Signal;HPM_P1;HPM_P2
2021/08/02 00:02:18;;;;;;;0.40;0.40;;;26.50;54.80;;;;;;5027146;28;20055;-64
2021/08/02 00:04:54;;;;;;;0.40;0.40;;;26.60;54.80;;;;;;5027923;28;20050;-64
2021/08/02 00:07:25;;;;;;;1.58;0.60;;;26.60;54.90;;;;;;5027294;28;20083;-64
2021/08/02 00:09:57;;;;;;;0.40;0.40;;;26.60;54.80;;;;;;5027531;28;20080;-64
2021/08/02 00:12:28;;;;;;;0.40;0.40;;;26.60;54.80;;;;;;5027160;28;20121;-64
2021/08/02 00:14:58;;;;;;;0.82;0.65;;;26.60;54.80;;;;;;5027705;28;20080;-64
2021/08/02 00:17:26;;;;;;;0.57;0.55;;;26.60;54.80;;;;;;5027324;28;20486;-64
2021/08/02 00:19:53;;;;;;;0.50;0.40;;;26.60;54.80;;;;;;5027528;28;20132;-64
2021/08/02 00:22:20;;;;;;;1.65;0.40;;;26.60;54.80;;;;;;5026748;28;20059;-64
2021/08/02 00:24:49;;;;;;;0.30;0.30;;;26.60;54.80;;;;;;5027383;28;20045;-64
2021/08/02 00:27:18;;;;;;;0.57;0.57;;;26.60;54.80;;;;;;5027436;28;20178;-64
2021/08/02 00:29:46;;;;;;;0.40;0.40;;;26.60;54.80;;;;;;5027461;28;20052;-64
2021/08/02 00:32:13;;;;;;;0.50;0.50;;;26.60;54.70;;;;;;5027379;28;20049;-64
2021/08/02 00:34:41;;;;;;;0.50;0.40;;;26.60;54.80;;;;;;5027302;28;20055;-64
2021/08/02 00:37:17;;;;;;;0.75;0.50;;;26.60;54.80;;;;;;5027359;28;20088;-64
2021/08/02 00:40:00;;;;;;;0.50;0.50;;;26.60;54.80;;;;;;5027322;28;20045;-64
2021/08/02 00:42:59;;;;;;;0.50;0.50;;;26.60;54.80;;;;;;5025819;28;20128;-64
2021/08/02 00:45:32;;;;;;;0.40;0.40;;;26.60;54.80;;;;;;5027308;28;20107;-64
2021/08/02 00:48:06;;;;;;;0.45;0.45;;;26.60;54.80;;;;;;5026953;28;20465;-64
2021/08/02 00:50:41;;;;;;;0.65;0.40;;;26.60;54.80;;;;;;5027427;28;20051;-64
2021/08/02 00:53:14;;;;;;;0.50;0.50;;;26.60;54.80;;;;;;5028840;28;20129;-64
2021/08/02 00:55:44;;;;;;;0.47;0.40;;;26.50;54.80;;;;;;5031116;28;20085;-64
2021/08/02 00:58:16;;;;;;;0.28;0.28;;;26.50;54.80;;;;;;5030741;28;20132;-64
2021/08/02 01:00:46;;;;;;;0.20;0.20;;;26.50;54.80;;;;;;5031182;28;20429;-64
2021/08/02 01:03:16;;;;;;;0.30;0.30;;;26.50;54.80;;;;;;5030735;28;20387;-64
2021/08/02 01:05:47;;;;;;;0.45;0.45;;;26.50;54.80;;;;;;5030929;28;20045;-64
2021/08/02 01:08:22;;;;;;;0.38;0.38;;;26.50;54.80;;;;;;5030394;28;20395;-64
2021/08/02 01:10:53;;;;;;;0.43;0.43;;;26.50;54.90;;;;;;5030735;28;20490;-64
2021/08/02 01:13:22;;;;;;;0.25;0.25;;;26.50;54.90;;;;;;5030511;28;20059;-64
2021/08/02 01:15:52;;;;;;;0.30;0.30;;;26.50;54.90;;;;;;5030794;28;20049;-64
2021/08/02 01:18:21;;;;;;;0.40;0.40;;;26.50;54.90;;;;;;5031642;28;20132;-64
2021/08/02 01:20:54;;;;;;;0.43;0.32;;;26.50;54.90;;;;;;5029610;28;20053;-64
2021/08/02 01:23:22;;;;;;;0.50;0.50;;;26.50;54.90;;;;;;5030641;28;20090;-64
2021/08/02 01:26:28;;;;;;;0.50;0.50;;;26.50;54.90;;;;;;5030936;28;20132;-64
2021/08/02 01:29:35;;;;;;;0.38;0.38;;;26.50;55.00;;;;;;5029380;28;20115;-64
2021/08/02 01:32:03;;;;;;;0.40;0.40;;;26.50;54.90;;;;;;5030238;28;20128;-64
2021/08/02 01:34:30;;;;;;;0.40;0.40;;;26.50;54.90;;;;;;5030095;28;20111;-64
2021/08/02 01:36:57;;;;;;;0.40;0.40;;;26.50;55.00;;;;;;5030139;28;20084;-64
2021/08/02 01:39:25;;;;;;;0.50;0.40;;;26.50;54.90;;;;;;5030138;28;20081;-64
2021/08/02 01:41:52;;;;;;;0.43;0.30;;;26.50;54.80;;;;;;5029044;28;20477;-64
2021/08/02 01:44:19;;;;;;;0.60;0.60;;;26.50;54.80;;;;;;5028768;28;20057;-65
2021/08/02 01:47:11;;;;;;;0.40;0.40;;;26.50;54.80;;;;;;5030316;28;20103;-64
2021/08/02 01:49:41;;;;;;;0.20;0.20;;;26.50;54.80;;;;;;5029943;28;20159;-64
2021/08/02 01:52:17;;;;;;;0.28;0.28;;;26.50;54.80;;;;;;5030146;28;20391;-64
2021/08/02 01:54:56;;;;;;;0.35;0.35;;;26.50;54.80;;;;;;5029899;28;20413;-64
2021/08/02 01:57:44;;;;;;;0.30;0.30;;;26.50;54.70;;;;;;5029957;28;20491;-64
2021/08/02 02:00:14;;;;;;;0.50;0.50;;;26.50;54.70;;;;;;5029636;28;20099;-63
2021/08/02 02:02:47;;;;;;;0.25;0.25;;;26.50;54.70;;;;;;5029616;28;20084;-64
2021/08/02 02:05:21;;;;;;;0.43;0.43;;;26.50;54.70;;;;;;5029358;28;20119;-63
2021/08/02 02:08:15;;;;;;;0.47;0.47;;;26.50;54.70;;;;;;5029702;28;20361;-63
2021/08/02 02:10:53;;;;;;;0.30;0.30;;;26.50;54.70;;;;;;5029526;28;20129;-64
2021/08/02 02:13:27;;;;;;;0.40;0.40;;;26.50;54.80;;;;;;5029329;28;20060;-64
2021/08/02 02:15:58;;;;;;;0.38;0.38;;;26.50;54.80;;;;;;5028459;28;20049;-63
2021/08/02 02:18:27;;;;;;;0.20;0.20;;;26.50;54.80;;;;;;5029308;28;20406;-63
2021/08/02 02:20:56;;;;;;;0.20;0.20;;;26.50;54.80;;;;;;5029457;28;20081;-64
2021/08/02 02:23:24;;;;;;;0.60;0.60;;;26.50;54.80;;;;;;5029076;28;20120;-64
2021/08/02 02:25:52;;;;;;;0.40;0.40;;;26.50;54.80;;;;;;5029358;28;20042;-63
2021/08/02 02:28:20;;;;;;;0.35;0.30;;;26.50;54.80;;;;;;5028951;28;20049;-64
2021/08/02 02:30:51;;;;;;;0.30;0.30;;;26.50;54.80;;;;;;5029162;28;20487;-63
2021/08/02 02:33:18;;;;;;;0.50;0.50;;;26.50;54.80;;;;;;5028976;28;20053;-64
2021/08/02 02:35:47;;;;;;;0.30;0.30;;;26.50;54.80;;;;;;5029115;28;20144;-63
2021/08/02 02:38:16;;;;;;;1.10;0.38;;;26.50;54.80;;;;;;5029240;28;20073;-64
2021/08/02 02:40:45;;;;;;;0.20;0.20;;;26.50;55.40;;;;;;5028904;28;20092;-64
2021/08/02 02:43:14;;;;;;;0.20;0.20;;;26.50;54.90;;;;;;5029019;28;20310;-63
2021/08/02 02:45:46;;;;;;;0.30;0.30;;;26.50;54.90;;;;;;5027569;28;20132;-64
2021/08/02 02:48:16;;;;;;;0.30;0.30;;;26.40;54.80;;;;;;5028840;28;20348;-64
2021/08/02 02:50:45;;;;;;;0.52;0.30;;;26.40;54.80;;;;;;5028928;28;20042;-64
2021/08/02 02:53:14;;;;;;;0.45;0.40;;;26.40;54.80;;;;;;5029096;28;20081;-64
2021/08/02 02:55:43;;;;;;;0.30;0.30;;;26.40;54.90;;;;;;5028755;28;20081;-63
2021/08/02 02:58:11;;;;;;;0.40;0.40;;;26.40;54.90;;;;;;5028932;28;20045;-64
2021/08/02 03:00:39;;;;;;;0.30;0.30;;;26.50;55.00;;;;;;5028380;28;20743;-63
2021/08/02 03:03:09;;;;;;;0.30;0.30;;;26.40;54.90;;;;;;5028716;28;20049;-63
2021/08/02 03:05:37;;;;;;;;;;;26.40;54.90;;;;;;5029285;28;20580;-63
2021/08/02 03:08:06;;;;;;;0.32;0.30;;;26.40;54.90;;;;;;5028635;28;20452;-63
2021/08/02 03:10:35;;;;;;;0.20;0.20;;;26.40;54.90;;;;;;5028132;28;20077;-64
2021/08/02 03:13:02;;;;;;;0.20;0.20;;;26.40;54.90;;;;;;5027230;28;20229;-63
2021/08/02 03:15:29;;;;;;;0.20;0.20;;;26.40;54.90;;;;;;5028027;28;20054;-63
2021/08/02 03:17:56;;;;;;;0.20;0.20;;;26.50;54.90;;;;;;5028443;28;20050;-63
2021/08/02 03:20:24;;;;;;;0.30;0.30;;;26.40;54.80;;;;;;5027983;28;20053;-64
2021/08/02 03:23:17;;;;;;;0.30;0.30;;;26.40;54.80;;;;;;5028353;28;20589;-64
2021/08/02 03:25:56;;;;;;;0.20;0.20;;;26.50;54.90;;;;;;5028062;28;20536;-63
2021/08/02 03:28:47;;;;;;;0.50;0.50;;;26.40;54.80;;;;;;5028521;28;20402;-64
2021/08/02 03:31:22;;;;;;;0.40;0.40;;;26.50;54.80;;;;;;5028145;28;20279;-63
2021/08/02 03:33:49;;;;;;;0.20;0.20;;;26.50;54.80;;;;;;5027864;28;20057;-63
2021/08/02 03:36:18;;;;;;;0.20;0.20;;;26.50;54.80;;;;;;5027653;28;20053;-66
2021/08/02 03:38:49;;;;;;;0.30;0.30;;;26.50;54.80;;;;;;5027503;28;20128;-63
2021/08/02 03:41:19;;;;;;;0.28;0.28;;;26.50;54.80;;;;;;5028055;28;20050;-63
2021/08/02 03:43:47;;;;;;;0.28;0.28;;;26.50;54.80;;;;;;5022185;28;20078;-63
2021/08/02 03:46:16;;;;;;;0.43;0.43;;;26.40;54.70;;;;;;5017803;28;20085;-63
2021/08/02 03:48:45;;;;;;;0.37;0.37;;;26.50;54.80;;;;;;5016928;28;20099;-63
2021/08/02 03:51:12;;;;;;;0.40;0.40;;;26.40;55.00;;;;;;5016670;28;20378;-63
2021/08/02 03:53:41;;;;;;;0.32;0.30;;;26.50;54.80;;;;;;5027615;28;20132;-63
2021/08/02 03:56:10;;;;;;;0.35;0.32;;;26.40;54.70;;;;;;5027626;28;20052;-63
2021/08/02 03:58:37;;;;;;;0.50;0.50;;;26.40;54.70;;;;;;5027740;28;20099;-64
2021/08/02 04:01:05;;;;;;;0.20;0.20;;;26.40;54.70;;;;;;5025915;28;20156;-63
2021/08/02 04:03:33;;;;;;;0.25;0.20;;;26.40;54.80;;;;;;5025463;28;20124;-63
2021/08/02 04:06:01;;;;;;;0.20;0.20;;;26.40;54.70;;;;;;5018002;28;20045;-63
2021/08/02 04:08:28;;;;;;;0.20;0.20;;;26.40;54.70;;;;;;5016893;28;20161;-64
2021/08/02 04:10:55;;;;;;;0.22;0.20;;;26.50;54.80;;;;;;5016818;28;20485;-64
2021/08/02 04:13:23;;;;;;;0.30;0.30;;;26.40;54.70;;;;;;5009997;28;20046;-63
2021/08/02 04:15:50;;;;;;;0.30;0.30;;;26.40;54.70;;;;;;5007504;28;20045;-64
2021/08/02 04:18:17;;;;;;;0.10;0.10;;;26.50;54.80;;;;;;5007733;28;20081;-63
2021/08/02 04:20:45;;;;;;;0.13;0.13;;;26.50;54.80;;;;;;5007439;28;20057;-64
2021/08/02 04:23:12;;;;;;;0.20;0.20;;;26.40;54.70;;;;;;5007938;28;20132;-63
2021/08/02 04:25:40;;;;;;;0.20;0.20;;;26.40;54.70;;;;;;5007200;28;20049;-64
2021/08/02 04:28:07;;;;;;;0.20;0.20;;;26.50;54.70;;;;;;5013561;28;20544;-64
2021/08/02 04:30:34;;;;;;;0.30;0.30;;;26.50;54.70;;;;;;5045227;28;20129;-64
2021/08/02 04:33:01;;;;;;;0.30;0.30;;;26.50;54.70;;;;;;5031291;28;20077;-64
2021/08/02 04:35:29;;;;;;;0.40;0.13;;;26.50;54.60;;;;;;5031309;28;20045;-63
2021/08/02 04:37:57;;;;;;;0.43;0.40;;;26.50;54.60;;;;;;5031099;28;20052;-64
2021/08/02 04:40:24;;;;;;;0.20;0.20;;;26.50;54.60;;;;;;5030486;28;20139;-63
2021/08/02 04:42:51;;;;;;;0.28;0.28;;;26.50;54.60;;;;;;5028067;28;20445;-64
2021/08/02 04:45:18;;;;;;;0.20;0.20;;;26.60;54.60;;;;;;5018350;28;20571;-63
2021/08/02 04:47:45;;;;;;;0.38;0.20;;;26.60;54.50;;;;;;5018705;28;20054;-63
2021/08/02 04:50:13;;;;;;;0.20;0.20;;;26.60;54.40;;;;;;5020317;28;20129;-63
2021/08/02 04:52:42;;;;;;;0.30;0.30;;;26.60;54.30;;;;;;5018864;28;20037;-64
2021/08/02 04:55:10;;;;;;;0.30;0.30;;;26.60;54.20;;;;;;5021929;28;20046;-64
2021/08/02 04:57:37;;;;;;;0.20;0.20;;;26.70;54.20;;;;;;5022861;28;20081;-63
2021/08/02 05:00:06;;;;;;;0.75;0.20;;;26.70;54.10;;;;;;5024348;28;20084;-63
2021/08/02 05:02:33;;;;;;;0.20;0.20;;;26.70;54.10;;;;;;5027317;28;20125;-64
2021/08/02 05:05:01;;;;;;;0.30;0.30;;;26.80;54.10;;;;;;5029057;28;20171;-64
2021/08/02 05:07:28;;;;;;;0.20;0.20;;;26.80;54.00;;;;;;5028625;28;22422;-64
2021/08/02 05:09:55;;;;;;;0.20;0.20;;;26.80;53.90;;;;;;5029406;28;20061;-63
2021/08/02 05:12:22;;;;;;;0.63;0.35;;;26.70;53.80;;;;;;5013732;28;20085;-64
2021/08/02 05:14:50;;;;;;;0.20;0.20;;;26.60;53.70;;;;;;5024898;28;20508;-64
2021/08/02 05:17:17;;;;;;;0.95;0.30;;;26.40;53.70;;;;;;5019324;28;20057;-64
2021/08/02 05:19:44;;;;;;;0.60;0.55;;;26.30;53.90;;;;;;5021417;28;20049;-64
2021/08/02 05:22:11;;;;;;;0.43;0.43;;;26.00;54.20;;;;;;5021222;28;20064;-64
2021/08/02 05:24:38;;;;;;;0.60;0.60;;;25.70;54.60;;;;;;5022084;28;20076;-64
2021/08/02 05:27:06;;;;;;;0.40;0.40;;;25.40;55.30;;;;;;5021410;28;20081;-63
2021/08/02 05:29:33;;;;;;;0.32;0.32;;;25.10;55.90;;;;;;5016492;28;20038;-62
2021/08/02 05:32:00;;;;;;;0.47;0.47;;;24.90;56.40;;;;;;5022168;28;20498;-63
2021/08/02 05:34:27;;;;;;;0.70;0.70;;;24.70;56.60;;;;;;5024416;28;20132;-62
2021/08/02 05:36:54;;;;;;;0.30;0.30;;;24.60;56.60;;;;;;5022386;28;20077;-63
2021/08/02 05:39:21;;;;;;;0.50;0.50;;;24.50;56.60;;;;;;5021134;28;20538;-63
2021/08/02 05:41:48;;;;;;;0.50;0.50;;;24.40;56.70;;;;;;5024631;28;20058;-63
2021/08/02 05:44:15;;;;;;;0.40;0.40;;;24.30;56.60;;;;;;5014701;28;20128;-63
2021/08/02 05:46:43;;;;;;;0.50;0.40;;;24.20;56.80;;;;;;5014926;28;20413;-64
2021/08/02 05:49:11;;;;;;;0.50;0.50;;;24.10;56.70;;;;;;5012985;28;20128;-64
2021/08/02 05:51:39;;;;;;;0.40;0.40;;;24.00;56.60;;;;;;5018079;28;20178;-63
2021/08/02 05:54:06;;;;;;;0.60;0.60;;;24.00;56.50;;;;;;5015215;28;20084;-64
2021/08/02 05:56:33;;;;;;;0.52;0.52;;;23.90;56.70;;;;;;5016534;28;20108;-64
2021/08/02 05:59:00;;;;;;;0.82;0.40;;;23.80;56.80;;;;;;5010683;28;20135;-64
2021/08/02 06:01:28;;;;;;;0.60;0.60;;;23.80;56.90;;;;;;5015208;28;20136;-64
2021/08/02 06:03:56;;;;;;;2.63;0.75;;;23.70;57.20;;;;;;5012531;28;20557;-64
2021/08/02 06:06:23;;;;;;;0.63;0.63;;;23.60;57.30;;;;;;5012718;28;20084;-64
2021/08/02 06:08:50;;;;;;;0.60;0.60;;;23.60;57.30;;;;;;5006533;28;20445;-64
2021/08/02 06:11:17;;;;;;;0.70;0.70;;;23.60;57.20;;;;;;5008873;28;20232;-64
2021/08/02 06:13:48;;;;;;;0.82;0.82;;;23.60;57.30;;;;;;5011286;28;20045;-63
2021/08/02 06:16:20;;;;;;;2.83;1.05;;;23.50;57.10;;;;;;5011750;28;20068;-63
2021/08/02 06:19:02;;;;;;;1.15;0.90;;;23.50;57.00;;;;;;5008842;28;20046;-64
2021/08/02 06:21:29;;;;;;;1.17;0.80;;;23.50;56.70;;;;;;5011692;28;20548;-63
2021/08/02 06:23:57;;;;;;;4.85;0.98;;;23.50;56.70;;;;;;5013298;28;20059;-64
2021/08/02 06:26:24;;;;;;;1.52;0.80;;;23.40;56.60;;;;;;5005993;28;20814;-62
2021/08/02 06:28:51;;;;;;;0.90;0.60;;;23.40;56.50;;;;;;5009851;28;20056;-64
2021/08/02 06:31:20;;;;;;;1.30;1.20;;;23.40;56.60;;;;;;5009039;28;20041;-63
2021/08/02 06:33:47;;;;;;;1.15;1.08;;;23.40;56.70;;;;;;5010315;28;20056;-63
2021/08/02 06:36:20;;;;;;;1.27;0.90;;;23.40;56.50;;;;;;5012435;28;20140;-63
2021/08/02 06:38:49;;;;;;;1.95;0.93;;;23.40;56.50;;;;;;5012257;28;20129;-64
2021/08/02 06:41:16;;;;;;;3.17;1.55;;;23.40;56.50;;;;;;5017290;28;20076;-63
2021/08/02 06:43:43;;;;;;;1.75;1.10;;;23.40;56.50;;;;;;5011740;28;20136;-63
2021/08/02 06:46:10;;;;;;;1.00;1.00;;;23.40;56.50;;;;;;5015045;28;20502;-63
2021/08/02 06:48:40;;;;;;;1.92;1.10;;;23.40;56.30;;;;;;5014229;28;20283;-63
2021/08/02 06:51:08;;;;;;;2.53;1.13;;;23.40;56.40;;;;;;5012179;28;20148;-63
2021/08/02 06:53:35;;;;;;;1.20;1.08;;;23.40;56.40;;;;;;5017367;28;20128;-63
2021/08/02 06:56:02;;;;;;;1.98;1.25;;;23.40;56.30;;;;;;5017080;28;20124;-63
2021/08/02 06:58:30;;;;;;;2.00;1.10;;;23.40;56.20;;;;;;5016965;28;20049;-64
2021/08/02 07:00:57;;;;;;;4.15;1.52;;;23.40;56.20;;;;;;5019574;28;20146;-63
2021/08/02 07:03:24;;;;;;;4.50;1.20;;;23.40;56.30;;;;;;5015672;28;20044;-63
2021/08/02 07:05:51;;;;;;;1.52;1.30;;;23.50;56.40;;;;;;5020602;28;20045;-63
2021/08/02 07:08:19;;;;;;;1.30;1.20;;;23.40;56.40;;;;;;5015746;28;20077;-63
2021/08/02 07:10:47;;;;;;;1.92;1.40;;;23.50;56.40;;;;;;5013716;28;20049;-63
2021/08/02 07:13:19;;;;;;;1.42;1.08;;;23.50;56.30;;;;;;5016723;28;20132;-65
2021/08/02 07:15:50;;;;;;;1.55;1.13;;;23.50;56.20;;;;;;5015004;28;20057;-64
2021/08/02 07:18:21;;;;;;;4.32;1.60;;;23.50;56.20;;;;;;5012651;28;20037;-64
2021/08/02 07:20:49;;;;;;;2.70;1.05;;;23.50;56.10;;;;;;5011595;28;20862;-64
2021/08/02 07:23:16;;;;;;;2.72;1.00;;;23.50;56.10;;;;;;5014125;28;20053;-64
2021/08/02 07:25:44;;;;;;;2.20;1.13;;;23.40;55.90;;;;;;5016202;28;20049;-64
2021/08/02 07:28:12;;;;;;;1.90;1.17;;;23.50;56.00;;;;;;5019146;28;20054;-63
2021/08/02 07:30:39;;;;;;;1.40;1.10;;;23.50;55.90;;;;;;5016327;28;20260;-63
2021/08/02 07:33:07;;;;;;;3.97;1.23;;;23.50;56.00;;;;;;5037427;28;20057;-63
2021/08/02 07:35:34;;;;;;;4.90;1.92;;;23.50;56.00;;;;;;5017900;28;20045;-63
2021/08/02 07:38:01;;;;;;;3.60;1.83;;;23.50;56.00;;;;;;5018324;28;20091;-63
2021/08/02 07:40:28;;;;;;;6.82;1.38;;;23.50;56.00;;;;;;5020907;28;20099;-63
2021/08/02 07:42:55;;;;;;;2.03;1.60;;;23.50;56.10;;;;;;5024747;28;20133;-63
2021/08/02 07:45:23;;;;;;;1.73;0.90;;;23.40;56.10;;;;;;5015790;28;20145;-62
2021/08/02 07:47:50;;;;;;;2.05;1.20;;;23.40;56.10;;;;;;5018903;28;20122;-63
2021/08/02 07:50:17;;;;;;;1.67;1.00;;;23.40;56.30;;;;;;5017272;28;20081;-63
2021/08/02 07:52:44;;;;;;;2.08;1.17;;;23.40;56.40;;;;;;5017580;28;20141;-63
2021/08/02 07:55:12;;;;;;;1.23;0.93;;;23.40;56.30;;;;;;5014982;28;20479;-63
2021/08/02 07:57:40;;;;;;;3.15;1.10;;;23.40;56.50;;;;;;5015455;28;20081;-63
2021/08/02 08:00:09;;;;;;;2.33;1.30;;;23.30;56.40;;;;;;5017461;28;20119;-63
2021/08/02 08:02:36;;;;;;;1.85;1.00;;;23.30;56.50;;;;;;5017329;28;20103;-63
2021/08/02 08:05:05;;;;;;;1.83;1.08;;;23.30;56.50;;;;;;5018619;28;20049;-63
2021/08/02 08:07:46;;;;;;;1.52;1.00;;;23.30;56.60;;;;;;5015503;28;20057;-63
2021/08/02 08:10:19;;;;;;;1.00;1.00;;;23.30;56.70;;;;;;5019251;28;20529;-63
2021/08/02 08:12:47;;;;;;;0.70;0.70;;;23.40;56.80;;;;;;5016386;28;20046;-64
2021/08/02 08:15:15;;;;;;;1.02;0.85;;;23.40;56.90;;;;;;5022484;28;20052;-64
2021/08/02 08:17:42;;;;;;;1.90;1.00;;;23.40;56.80;;;;;;5020327;28;20520;-64
2021/08/02 08:20:12;;;;;;;0.80;0.80;;;23.40;56.90;;;;;;5019064;28;20072;-64
2021/08/02 08:22:39;;;;;;;0.98;0.95;;;23.40;57.00;;;;;;5015977;28;20125;-63
2021/08/02 08:25:08;;;;;;;1.00;0.88;;;23.30;57.10;;;;;;5022110;28;20037;-64
2021/08/02 08:27:36;;;;;;;1.00;1.00;;;23.30;57.10;;;;;;5017871;28;20053;-64
2021/08/02 08:30:06;;;;;;;1.08;0.98;;;23.40;57.20;;;;;;5016422;28;20406;-63
2021/08/02 08:32:33;;;;;;;0.60;0.60;;;23.30;57.30;;;;;;5017614;28;20137;-63
2021/08/02 08:35:00;;;;;;;1.70;1.00;;;23.30;57.30;;;;;;5015595;28;20052;-61
2021/08/02 08:37:31;;;;;;;1.33;1.02;;;23.30;57.30;;;;;;5016163;28;20133;-62
2021/08/02 08:39:58;;;;;;;1.65;1.02;;;23.30;57.50;;;;;;5019981;28;20148;-63
2021/08/02 08:42:25;;;;;;;0.93;0.93;;;23.30;57.30;;;;;;5015756;28;20162;-62
2021/08/02 08:44:52;;;;;;;1.00;1.00;;;23.30;57.20;;;;;;5018627;28;20045;-63
2021/08/02 08:47:20;;;;;;;1.75;1.00;;;23.20;57.20;;;;;;5010505;28;20113;-63
2021/08/02 08:49:48;;;;;;;0.75;0.75;;;23.20;57.10;;;;;;5018502;28;20439;-63
2021/08/02 08:52:15;;;;;;;1.70;0.80;;;23.20;57.00;;;;;;5018648;28;20243;-63
2021/08/02 08:54:43;;;;;;;0.95;0.95;;;23.20;56.80;;;;;;5015916;28;20465;-60
2021/08/02 08:57:11;;;;;;;1.38;0.93;;;23.20;56.80;;;;;;5016747;28;20053;-61
2021/08/02 08:59:52;;;;;;;0.93;0.93;;;23.30;56.90;;;;;;5013710;28;20405;-62
2021/08/02 09:02:24;;;;;;;2.65;0.80;;;23.30;56.90;;;;;;5014762;28;20050;-66
2021/08/02 09:05:00;;;;;;;2.03;0.88;;;23.30;57.00;;;;;;5016548;28;20049;-66
2021/08/02 09:07:39;;;;;;;2.50;0.75;;;23.30;56.80;;;;;;5017944;28;20140;-65
2021/08/02 09:10:12;;;;;;;0.98;0.98;;;23.40;57.30;;;;;;5017747;28;20520;-61
2021/08/02 09:12:54;;;;;;;2.55;0.80;;;23.40;56.60;;;;;;5016418;28;20050;-71
2021/08/02 09:15:42;;;;;;;1.23;0.80;;;23.40;56.30;;;;;;5018888;28;20037;-69
2021/08/02 09:18:14;;;;;;;0.88;0.88;;;23.40;56.10;;;;;;5022287;28;20797;-68
2021/08/02 09:20:42;;;;;;;0.80;0.80;;;23.40;56.10;;;;;;5018253;28;20766;-68
2021/08/02 09:23:15;;;;;;;0.75;0.75;;;23.40;56.10;;;;;;5014643;28;20399;-60
2021/08/02 09:25:48;;;;;;;1.15;1.00;;;23.40;56.20;;;;;;5022236;28;20115;-68
2021/08/02 09:28:18;;;;;;;1.38;0.93;;;23.40;56.20;;;;;;5023174;28;20050;-67
2021/08/02 09:31:01;;;;;;;1.15;1.02;;;23.30;55.90;;;;;;5023323;28;20085;-66
2021/08/02 09:33:47;;;;;;;1.08;0.80;;;23.40;56.30;;;;;;5019605;28;20050;-66
2021/08/02 09:36:16;;;;;;;0.77;0.70;;;23.40;55.90;;;;;;5020340;28;20081;-66
2021/08/02 09:38:43;;;;;;;1.60;0.88;;;23.40;55.90;;;;;;5021239;28;20083;-66
2021/08/02 09:41:20;;;;;;;1.08;0.98;;;23.40;55.90;;;;;;5020685;28;20107;-67
2021/08/02 09:43:52;;;;;;;0.57;0.57;;;23.40;55.80;;;;;;5018887;28;20128;-64
2021/08/02 09:46:20;;;;;;;0.80;0.80;;;23.50;55.80;;;;;;5015360;28;20245;-66
2021/08/02 09:48:48;;;;;;;3.92;0.82;;;23.50;55.70;;;;;;5017009;28;20060;-66
2021/08/02 09:51:21;;;;;;;0.65;0.65;;;23.50;55.60;;;;;;5018170;28;20088;-66
2021/08/02 09:53:54;;;;;;;2.67;0.68;;;23.50;55.50;;;;;;5014649;28;20129;-67
2021/08/02 09:56:23;;;;;;;1.05;0.80;;;23.60;55.40;;;;;;5017837;28;20081;-66
2021/08/02 09:59:08;;;;;;;0.63;0.63;;;23.50;55.40;;;;;;5023826;28;20053;-66
2021/08/02 10:01:36;;;;;;;0.77;0.73;;;23.60;55.40;;;;;;5016033;28;20369;-67
2021/08/02 10:04:05;;;;;;;1.80;0.70;;;23.60;55.40;;;;;;5019584;28;20041;-65
2021/08/02 10:06:52;;;;;;;1.30;0.70;;;23.60;55.40;;;;;;5021951;28;20742;-65
2021/08/02 10:09:20;;;;;;;0.60;0.60;;;23.60;55.40;;;;;;5016831;28;20061;-67
2021/08/02 10:11:49;;;;;;;2.38;0.68;;;23.50;55.40;;;;;;5017688;28;20100;-66
2021/08/02 10:14:33;;;;;;;3.47;0.75;;;23.50;55.40;;;;;;5017693;28;20045;-66
2021/08/02 10:17:05;;;;;;;0.70;0.60;;;23.50;55.40;;;;;;5023706;28;20136;-67
2021/08/02 10:19:38;;;;;;;1.00;0.90;;;23.50;55.40;;;;;;5018453;28;20092;-67
2021/08/02 10:22:06;;;;;;;0.68;0.68;;;23.50;55.40;;;;;;5013897;28;20139;-67
2021/08/02 10:24:48;;;;;;;2.45;0.90;;;23.50;55.40;;;;;;5012657;28;20077;-67
2021/08/02 10:27:28;;;;;;;1.75;0.85;;;23.40;55.30;;;;;;5015206;28;20148;-68
2021/08/02 10:30:04;;;;;;;1.27;0.65;;;23.40;55.30;;;;;;5019236;28;20073;-62
2021/08/02 10:32:35;;;;;;;0.65;0.65;;;23.40;55.50;;;;;;5018828;28;20112;-65
2021/08/02 10:35:04;;;;;;;0.77;0.77;;;23.40;55.70;;;;;;5018277;28;20073;-61
2021/08/02 10:37:34;;;;;;;0.60;0.60;;;23.40;55.70;;;;;;5020933;28;20464;-69
2021/08/02 10:40:21;;;;;;;0.70;0.70;;;23.40;55.70;;;;;;5018647;28;20044;-67
2021/08/02 10:42:50;;;;;;;0.68;0.68;;;23.40;55.70;;;;;;5018264;28;20446;-66
2021/08/02 10:45:30;;;;;;;0.77;0.70;;;23.40;55.70;;;;;;5018088;28;20688;-67
2021/08/02 10:47:57;;;;;;;0.65;0.65;;;23.40;55.60;;;;;;5022025;28;20287;-67
2021/08/02 10:50:27;;;;;;;0.60;0.60;;;23.40;55.50;;;;;;5024392;28;20092;-67
2021/08/02 10:52:55;;;;;;;3.40;0.73;;;23.40;55.30;;;;;;5021960;28;20057;-66
2021/08/02 10:55:25;;;;;;;0.82;0.60;;;23.40;55.30;;;;;;5022388;28;20298;-67
2021/08/02 10:57:57;;;;;;;0.57;0.57;;;23.40;55.30;;;;;;5025261;28;20081;-67
2021/08/02 11:00:25;;;;;;;0.60;0.60;;;23.50;55.30;;;;;;5012957;28;20046;-64
2021/08/02 11:02:54;;;;;;;1.05;0.60;;;23.40;55.20;;;;;;5015846;28;20069;-63
2021/08/02 11:05:23;;;;;;;0.80;0.80;;;23.50;55.40;;;;;;5024077;28;20133;-64
2021/08/02 11:07:50;;;;;;;0.50;0.50;;;23.50;55.30;;;;;;5014544;28;20053;-64
2021/08/02 11:10:18;;;;;;;0.88;0.88;;;23.50;55.10;;;;;;5024193;28;20085;-65
2021/08/02 11:12:47;;;;;;;0.60;0.60;;;23.50;55.10;;;;;;5018890;28;20044;-62
2021/08/02 11:15:15;;;;;;;0.52;0.52;;;23.50;55.10;;;;;;5020766;28;20053;-64
2021/08/02 11:17:53;;;;;;;0.70;0.70;;;23.60;55.00;;;;;;5015763;28;20046;-67
2021/08/02 11:20:24;;;;;;;0.50;0.50;;;23.60;55.20;;;;;;5036447;28;20482;-67
2021/08/02 11:22:53;;;;;;;0.73;0.73;;;23.60;55.20;;;;;;5016886;28;20212;-68
2021/08/02 11:25:37;;;;;;;0.77;0.77;;;23.60;55.20;;;;;;5015979;28;20121;-69
2021/08/02 11:28:05;;;;;;;1.13;1.02;;;23.60;54.80;;;;;;5014828;28;20049;-69
2021/08/02 11:30:32;;;;;;;0.80;0.80;;;23.70;54.40;;;;;;5015251;28;20187;-69
2021/08/02 11:32:59;;;;;;;6.22;1.23;;;23.70;54.20;;;;;;5016417;28;20136;-66
2021/08/02 11:35:35;;;;;;;2.80;0.68;;;23.70;54.10;;;;;;5018235;28;20080;-67
2021/08/02 11:38:03;;;;;;;0.60;0.60;;;23.70;54.00;;;;;;5018173;28;20057;-67
2021/08/02 11:40:38;;;;;;;0.85;0.70;;;23.70;53.80;;;;;;5036799;28;20092;-65
2021/08/02 11:43:07;;;;;;;0.70;0.70;;;23.70;53.80;;;;;;5017830;28;20057;-67
2021/08/02 11:45:35;;;;;;;0.88;0.85;;;23.70;53.80;;;;;;5022350;28;20449;-66
2021/08/02 11:48:08;;;;;;;1.65;0.93;;;23.70;53.60;;;;;;5018200;28;20049;-63
2021/08/02 11:50:35;;;;;;;0.50;0.50;;;23.70;53.50;;;;;;5019475;28;20053;-65
2021/08/02 11:53:04;;;;;;;0.85;0.70;;;23.70;53.40;;;;;;5017612;28;20046;-68
2021/08/02 11:55:32;;;;;;;0.93;0.70;;;23.70;53.20;;;;;;5019970;28;20046;-68
2021/08/02 11:58:01;;;;;;;0.70;0.70;;;23.60;53.40;;;;;;5020929;28;20050;-68
2021/08/02 12:00:28;;;;;;;0.75;0.75;;;23.60;53.30;;;;;;5018969;28;20136;-67
2021/08/02 12:03:11;;;;;;;0.70;0.70;;;23.60;53.10;;;;;;5021433;28;20485;-68
2021/08/02 12:05:39;;;;;;;0.55;0.55;;;23.50;53.00;;;;;;5015172;28;20049;-70
2021/08/02 12:08:18;;;;;;;1.00;0.80;;;23.50;53.10;;;;;;5018132;28;20065;-67
2021/08/02 12:11:01;;;;;;;0.88;0.70;;;23.50;53.10;;;;;;5021407;28;20050;-67
2021/08/02 12:13:43;;;;;;;0.60;0.60;;;23.50;53.30;;;;;;5020557;28;20076;-67
2021/08/02 12:16:12;;;;;;;0.60;0.60;;;23.50;53.20;;;;;;5014732;28;20099;-67
2021/08/02 12:18:40;;;;;;;0.80;0.80;;;23.50;53.10;;;;;;5019825;28;20111;-66
2021/08/02 12:21:24;;;;;;;0.88;0.73;;;23.50;53.10;;;;;;5026808;28;20512;-67
2021/08/02 12:24:04;;;;;;;0.63;0.63;;;23.50;53.10;;;;;;5017034;28;20529;-66
2021/08/02 12:26:32;;;;;;;0.70;0.60;;;23.50;52.90;;;;;;5018204;28;20049;-67
2021/08/02 12:28:59;;;;;;;1.48;0.70;;;23.50;53.00;;;;;;5015022;28;20050;-67
2021/08/02 12:31:27;;;;;;;0.90;0.60;;;23.50;53.10;;;;;;5019735;28;20128;-66
2021/08/02 12:33:55;;;;;;;0.60;0.60;;;23.50;53.20;;;;;;5018976;28;20045;-66
2021/08/02 12:36:22;;;;;;;0.70;0.70;;;23.50;53.30;;;;;;5018435;28;20060;-67
2021/08/02 12:38:51;;;;;;;1.00;0.90;;;23.50;53.30;;;;;;5020089;28;20754;-67
2021/08/02 12:41:19;;;;;;;0.88;0.85;;;23.50;53.40;;;;;;5016795;28;20137;-67
2021/08/02 12:43:47;;;;;;;0.63;0.63;;;23.50;53.40;;;;;;5020126;28;20077;-68
2021/08/02 12:46:14;;;;;;;0.70;0.70;;;23.50;53.40;;;;;;5014257;28;20726;-68
2021/08/02 12:48:57;;;;;;;0.68;0.50;;;23.50;53.50;;;;;;5023787;28;20263;-67
2021/08/02 12:51:25;;;;;;;0.50;0.50;;;23.50;53.40;;;;;;5022669;28;20512;-67
2021/08/02 12:53:53;;;;;;;1.35;0.70;;;23.50;53.30;;;;;;5021754;28;20053;-68
2021/08/02 12:56:21;;;;;;;0.63;0.63;;;23.50;53.40;;;;;;5022953;28;20050;-67
2021/08/02 12:58:48;;;;;;;0.45;0.43;;;23.50;53.40;;;;;;5027245;28;20045;-68
2021/08/02 13:01:15;;;;;;;1.85;0.50;;;23.50;53.40;;;;;;5021750;28;20107;-67
2021/08/02 13:03:43;;;;;;;0.50;0.47;;;23.50;53.40;;;;;;5024826;28;20096;-67
2021/08/02 13:06:11;;;;;;;0.57;0.57;;;23.50;53.50;;;;;;5023370;28;20548;-67